Portada
METAR-TAF:

METAR-TAF

Aeroports :

Creston, Iowa, Estats Units d'Amèrica

latitud: 41-01N, longitud: 094-22W, altitud: 394 m

Observació

L'informe es va fer fa 25 minuts, a les 11:35 UTC
Vent 11 kt del Sud/Sud-Oest
Temperatura 24°C
Humitat 89%
Pressió 1013 hPa
Visibilitat: 16.1 km
Escasses núvols a una alçada de 7500 ft

METAR: KCSQ 221135Z AUTO 21011KT 10SM FEW075 24/22 A2991 RMK AO2

Hora: 07:00 (12:00 UTC)


TAF: manca

Observacions i pronòstics meteorològics de més de 4000 aeroports (METAR i TAF).

Les estacions disponibles són els punts grocs i vermells al mapa.

Posi el ratolí al punt desitjat per veure el nom de l'estació.

Feu clic per veure les observacions i els pronòstics meteorològics.

Per canviar el mapa: feu clic els botons verds amb una creu de color negre per apropar; al botó verd amb un guió per allunyar la imatge; o en les fletxes verdes per a mapes adjacents.


METAR-TAF: